createdAt,value
2018-04-25T00:00:38.217Z,52.64
2018-04-25T00:04:40.691Z,52.82
2018-04-25T00:08:43.181Z,53.06
2018-04-25T00:12:45.682Z,53.24
2018-04-25T00:16:48.142Z,53.11
2018-04-25T00:20:50.622Z,53.37
2018-04-25T00:24:53.099Z,53.72
2018-04-25T00:28:55.557Z,53.81
2018-04-25T00:32:58.032Z,53.81
2018-04-25T00:37:00.510Z,54.01
2018-04-25T00:41:03.018Z,54.00
2018-04-25T00:45:05.471Z,54.09
2018-04-25T00:49:07.989Z,54.27
2018-04-25T00:53:10.470Z,54.39
2018-04-25T00:57:12.938Z,54.56
2018-04-25T01:01:15.494Z,54.64
2018-04-25T01:05:17.950Z,54.76
2018-04-25T01:09:20.405Z,54.97
2018-04-25T01:13:22.887Z,55.11
2018-04-25T01:17:25.358Z,55.28
2018-04-25T01:21:27.830Z,55.45
2018-04-25T01:25:31.149Z,55.49
2018-04-25T01:29:33.605Z,55.67
2018-04-25T01:33:41.974Z,55.71
2018-04-25T01:37:47.915Z,55.86
2018-04-25T01:41:50.373Z,56.15
2018-04-25T01:46:25.312Z,56.30
2018-04-25T01:50:32.661Z,56.37
2018-04-25T01:54:47.043Z,56.58
2018-04-25T01:59:01.220Z,56.67
2018-04-25T02:03:03.161Z,56.77
2018-04-25T02:07:05.622Z,56.75
2018-04-25T02:11:08.110Z,56.74
2018-04-25T02:15:10.629Z,56.82
2018-04-25T02:19:13.101Z,56.90
2018-04-25T02:23:15.619Z,57.04
2018-04-25T02:27:18.107Z,57.19
2018-04-25T02:31:20.576Z,57.23
2018-04-25T02:35:23.075Z,57.31
2018-04-25T02:39:25.572Z,57.45
2018-04-25T02:43:28.051Z,57.49
2018-04-25T02:47:30.541Z,57.43
2018-04-25T02:51:33.055Z,57.53
2018-04-25T02:55:35.541Z,57.77
2018-04-25T02:59:37.995Z,57.96
2018-04-25T03:03:40.503Z,58.20
2018-04-25T03:07:42.996Z,58.47
2018-04-25T03:11:45.470Z,58.50
2018-04-25T03:15:47.939Z,58.47
2018-04-25T03:19:50.414Z,58.52
2018-04-25T03:23:52.934Z,58.71
2018-04-25T03:27:55.392Z,58.84
2018-04-25T03:31:57.876Z,58.98
2018-04-25T03:36:00.375Z,59.11
2018-04-25T03:40:02.871Z,59.11
2018-04-25T03:44:05.363Z,59.23
2018-04-25T03:48:07.844Z,59.40
2018-04-25T03:52:10.330Z,59.49
2018-04-25T03:56:12.812Z,59.67
2018-04-25T04:00:15.274Z,59.78
2018-04-25T04:04:17.758Z,59.77
2018-04-25T04:08:20.273Z,60.10
2018-04-25T04:12:22.728Z,60.45
2018-04-25T04:16:25.238Z,60.76
2018-04-25T04:20:27.720Z,60.92
2018-04-25T04:24:30.206Z,60.92
2018-04-25T04:28:32.687Z,60.71
2018-04-25T04:32:35.193Z,60.55
2018-04-25T04:36:37.712Z,60.55
2018-04-25T04:40:40.167Z,60.52
2018-04-25T04:44:42.666Z,60.54
2018-04-25T04:48:45.128Z,60.60
2018-04-25T04:52:47.632Z,60.69
2018-04-25T04:56:50.113Z,60.86
2018-04-25T05:00:52.607Z,61.10
2018-04-25T05:04:55.087Z,61.15
2018-04-25T05:08:57.582Z,61.52
2018-04-25T05:13:00.078Z,61.43
2018-04-25T05:17:02.567Z,61.18
2018-04-25T05:21:05.057Z,61.14
2018-04-25T05:25:07.556Z,60.81
2018-04-25T05:29:10.046Z,61.02
2018-04-25T05:33:12.506Z,60.73
2018-04-25T05:37:14.995Z,60.32
2018-04-25T05:41:17.479Z,59.80
2018-04-25T05:45:19.938Z,59.55
2018-04-25T05:49:22.418Z,59.35
2018-04-25T05:53:24.881Z,59.07
2018-04-25T05:57:27.365Z,58.72
2018-04-25T06:01:29.851Z,58.44
2018-04-25T06:05:32.315Z,58.38
2018-04-25T06:09:34.812Z,57.97
2018-04-25T06:13:37.298Z,57.59
2018-04-25T06:17:39.784Z,57.30
2018-04-25T06:21:42.252Z,57.05
2018-04-25T06:25:44.767Z,56.65
2018-04-25T06:29:47.302Z,56.25
2018-04-25T06:33:49.796Z,56.27
2018-04-25T06:37:52.290Z,55.94
2018-04-25T06:41:54.783Z,55.64
2018-04-25T06:45:57.264Z,55.17
2018-04-25T06:49:59.733Z,54.69
2018-04-25T06:54:02.230Z,54.33
2018-04-25T06:58:04.726Z,53.92
2018-04-25T07:02:07.183Z,53.66
2018-04-25T07:06:09.666Z,53.54
2018-04-25T07:10:12.147Z,53.68
2018-04-25T07:14:14.613Z,52.66
2018-04-25T07:18:17.091Z,52.45
2018-04-25T07:22:19.579Z,51.55
2018-04-25T07:26:22.063Z,51.54
2018-04-25T07:30:24.566Z,51.06
2018-04-25T07:34:27.038Z,50.62
2018-04-25T07:38:29.534Z,50.19
2018-04-25T07:42:32.005Z,49.93
2018-04-25T07:46:34.492Z,49.52
2018-04-25T07:50:36.971Z,48.92
2018-04-25T07:54:39.462Z,48.28
2018-04-25T07:58:41.922Z,48.03
2018-04-25T08:02:44.406Z,48.12
2018-04-25T08:06:46.893Z,47.80
2018-04-25T08:10:49.354Z,47.79
2018-04-25T08:19:45.554Z,46.65
2018-04-25T08:23:49.050Z,46.64
2018-04-25T08:27:51.476Z,45.61
2018-04-25T08:31:53.936Z,45.83
2018-04-25T08:35:56.414Z,45.45
2018-04-25T08:39:58.881Z,45.59
2018-04-25T08:44:01.360Z,44.90
2018-04-25T08:48:03.847Z,44.17
2018-04-25T08:52:06.327Z,44.45
2018-04-25T08:56:08.771Z,44.56
2018-04-25T09:00:11.246Z,44.09
2018-04-25T09:04:13.728Z,43.32
2018-04-25T09:08:16.216Z,42.33
2018-04-25T09:12:18.699Z,42.33
2018-04-25T09:16:21.146Z,42.15
2018-04-25T09:20:23.653Z,42.85
2018-04-25T09:24:26.125Z,42.33
2018-04-25T09:28:28.625Z,41.76
2018-04-25T09:32:31.103Z,41.49
2018-04-25T09:36:33.559Z,40.42
2018-04-25T09:40:36.049Z,39.89
2018-04-25T09:44:38.533Z,40.53
2018-04-25T09:48:41.027Z,38.39
2018-04-25T09:52:43.506Z,38.74
2018-04-25T09:56:45.989Z,39.77
2018-04-25T10:00:53.983Z,38.64
2018-04-25T10:04:56.449Z,38.12
2018-04-25T10:08:58.981Z,37.31
2018-04-25T10:13:01.444Z,36.67
2018-04-25T10:17:04.004Z,37.29
2018-04-25T10:21:06.406Z,35.60
2018-04-25T10:25:08.912Z,33.63
2018-04-25T10:29:11.399Z,32.46
2018-04-25T10:33:13.866Z,33.14
2018-04-25T10:37:16.355Z,32.76
2018-04-25T10:41:18.811Z,31.46
2018-04-25T10:45:21.294Z,31.38
2018-04-25T10:49:23.790Z,31.53
2018-04-25T10:53:26.252Z,31.24
2018-04-25T10:57:28.727Z,31.08
2018-04-25T11:01:31.206Z,31.62
2018-04-25T11:05:33.686Z,31.03
2018-04-25T11:09:36.152Z,29.98
2018-04-25T11:13:38.637Z,30.88
2018-04-25T11:17:41.122Z,30.01
2018-04-25T11:21:43.585Z,30.08
2018-04-25T11:25:46.073Z,30.49
2018-04-25T11:29:48.531Z,30.33
2018-04-25T11:33:51.018Z,31.20
2018-04-25T11:37:53.506Z,31.80
2018-04-25T11:41:55.955Z,31.44
2018-04-25T11:45:58.453Z,30.82
2018-04-25T11:50:00.919Z,31.19
2018-04-25T11:54:03.418Z,31.83
2018-04-25T11:58:06.077Z,31.51
2018-04-25T12:02:08.574Z,31.74
2018-04-25T12:06:11.076Z,32.11
2018-04-25T12:10:13.580Z,31.76
2018-04-25T12:14:16.101Z,31.50
2018-04-25T12:18:18.680Z,30.47
2018-04-25T12:22:21.133Z,29.76
2018-04-25T12:26:23.617Z,30.04
2018-04-25T12:30:26.099Z,30.19
2018-04-25T12:34:28.592Z,30.58
2018-04-25T12:38:31.055Z,30.49
2018-04-25T12:42:33.541Z,31.11
2018-04-25T12:46:36.028Z,30.67
2018-04-25T12:50:38.487Z,29.95
2018-04-25T12:54:40.970Z,30.56
2018-04-25T12:58:43.460Z,30.32
2018-04-25T13:02:47.288Z,30.71
2018-04-25T13:06:50.096Z,31.20
2018-04-25T13:10:52.698Z,31.17
2018-04-25T13:14:55.675Z,32.60
2018-04-25T13:18:58.364Z,31.34
2018-04-25T13:23:01.200Z,31.51
2018-04-25T13:27:04.140Z,31.59
2018-04-25T13:31:06.674Z,31.79
2018-04-25T13:35:09.152Z,31.46
2018-04-25T13:39:11.638Z,31.99
2018-04-25T13:43:14.122Z,31.27
2018-04-25T13:47:16.598Z,31.38
2018-04-25T13:51:19.073Z,32.12
2018-04-25T13:55:21.555Z,32.25
2018-04-25T13:59:24.066Z,31.38
2018-04-25T14:03:26.522Z,32.08
2018-04-25T14:07:28.994Z,32.17
2018-04-25T14:11:31.455Z,32.24
2018-04-25T14:15:33.939Z,32.56
2018-04-25T14:19:36.436Z,33.21
2018-04-25T14:23:38.886Z,32.37
2018-04-25T14:27:41.362Z,32.48
2018-04-25T14:31:43.803Z,33.23
2018-04-25T14:35:46.301Z,32.42
2018-04-25T14:39:48.766Z,32.58
2018-04-25T14:43:51.265Z,33.14
2018-04-25T14:47:53.721Z,32.52
2018-04-25T14:51:56.205Z,32.33
2018-04-25T14:55:58.701Z,32.06
2018-04-25T15:00:01.172Z,32.18
2018-04-25T15:04:03.653Z,32.11
2018-04-25T15:08:06.177Z,32.12
2018-04-25T15:12:08.635Z,32.93
2018-04-25T15:16:11.115Z,32.84
2018-04-25T15:20:13.606Z,32.06
2018-04-25T15:24:16.085Z,32.73
2018-04-25T15:28:18.634Z,33.23
2018-04-25T15:32:21.076Z,32.58
2018-04-25T15:36:23.546Z,32.36
2018-04-25T15:40:26.035Z,33.25
2018-04-25T15:44:28.487Z,32.13
2018-04-25T15:48:30.972Z,33.29
2018-04-25T15:52:33.444Z,33.07
2018-04-25T15:56:35.934Z,33.60
2018-04-25T16:00:38.556Z,33.72
2018-04-25T16:04:41.214Z,33.73
2018-04-25T16:08:43.840Z,34.07
2018-04-25T16:12:46.330Z,33.36
2018-04-25T16:16:48.854Z,33.67
2018-04-25T16:20:51.533Z,33.74
2018-04-25T16:24:54.354Z,33.12
2018-04-25T16:28:56.825Z,32.87
2018-04-25T16:32:59.313Z,33.62
2018-04-25T16:37:01.810Z,34.01
2018-04-25T16:41:04.269Z,33.35
2018-04-25T16:45:06.747Z,32.61
2018-04-25T16:49:09.222Z,32.62
2018-04-25T16:53:11.697Z,32.52
2018-04-25T16:57:14.245Z,32.75
2018-04-25T17:01:16.709Z,33.22
2018-04-25T17:05:19.186Z,33.56
2018-04-25T17:09:21.667Z,34.14
2018-04-25T17:13:24.173Z,34.14
2018-04-25T17:17:26.647Z,34.35
2018-04-25T17:21:29.143Z,34.35
2018-04-25T17:25:31.634Z,34.91
2018-04-25T17:29:34.083Z,34.56
2018-04-25T17:33:36.573Z,35.05
2018-04-25T17:37:39.047Z,35.31
2018-04-25T17:41:41.528Z,35.44
2018-04-25T17:45:43.983Z,35.40
2018-04-25T17:49:46.461Z,35.96
2018-04-25T17:53:48.928Z,36.30
2018-04-25T17:57:51.402Z,37.00
2018-04-25T18:01:53.861Z,37.41
2018-04-25T18:05:56.348Z,37.72
2018-04-25T18:09:58.866Z,37.91
2018-04-25T18:14:01.350Z,38.28
2018-04-25T18:18:03.818Z,38.13
2018-04-25T18:22:06.311Z,38.68
2018-04-25T18:26:08.767Z,38.86
2018-04-25T18:30:11.261Z,39.34
2018-04-25T18:34:13.735Z,39.41
2018-04-25T18:38:16.223Z,39.47
2018-04-25T18:42:18.685Z,39.54
2018-04-25T18:46:21.180Z,39.75
2018-04-25T18:50:23.666Z,40.04
2018-04-25T18:54:26.160Z,40.25
2018-04-25T18:58:28.635Z,40.10
2018-04-25T19:02:31.091Z,40.14
2018-04-25T19:06:33.583Z,41.41
2018-04-25T19:10:36.062Z,41.60
2018-04-25T19:14:38.553Z,41.58
2018-04-25T19:18:40.998Z,41.63
2018-04-25T19:22:43.469Z,42.05
2018-04-25T19:26:45.921Z,42.10
2018-04-25T19:30:48.393Z,42.36
2018-04-25T19:34:50.876Z,42.24
2018-04-25T19:38:53.641Z,42.27
2018-04-25T19:42:56.243Z,42.05
2018-04-25T19:46:59.190Z,41.73
2018-04-25T19:51:01.706Z,41.43
2018-04-25T19:55:04.177Z,41.61
2018-04-25T19:59:06.822Z,41.74
2018-04-25T20:03:09.297Z,42.64
2018-04-25T20:07:12.102Z,42.76
2018-04-25T20:11:14.853Z,42.46
2018-04-25T20:15:18.628Z,42.95
2018-04-25T20:19:21.563Z,40.93
2018-04-25T20:23:24.191Z,40.80
2018-04-25T20:27:26.980Z,40.06
2018-04-25T20:31:29.526Z,40.40
2018-04-25T20:35:31.985Z,40.30
2018-04-25T20:39:34.469Z,40.37
2018-04-25T20:43:36.930Z,40.76
2018-04-25T20:47:39.406Z,40.98
2018-04-25T20:51:41.924Z,40.99
2018-04-25T20:55:45.419Z,41.18
2018-04-25T20:59:48.845Z,41.78
2018-04-25T21:03:57.122Z,41.70
2018-04-25T21:07:59.638Z,41.93
2018-04-25T21:12:02.110Z,42.21
2018-04-25T21:16:05.626Z,41.98
2018-04-25T21:20:09.036Z,41.95
2018-04-25T21:24:11.512Z,42.09
2018-04-25T21:28:14.014Z,42.14
2018-04-25T21:32:16.484Z,42.39
2018-04-25T21:36:18.935Z,42.62
2018-04-25T21:40:21.398Z,42.56
2018-04-25T21:44:23.882Z,42.63
2018-04-25T21:48:26.331Z,42.58
2018-04-25T21:52:28.851Z,42.62
2018-04-25T21:56:31.295Z,42.49
2018-04-25T22:00:33.767Z,42.22
2018-04-25T22:04:36.238Z,42.40
2018-04-25T22:08:38.745Z,42.26
2018-04-25T22:12:41.225Z,42.54
2018-04-25T22:16:43.691Z,42.38
2018-04-25T22:20:46.153Z,42.64
2018-04-25T22:24:48.614Z,42.69
2018-04-25T22:28:51.068Z,42.61
2018-04-25T22:32:53.566Z,42.53
2018-04-25T22:36:56.062Z,42.61
2018-04-25T22:40:58.519Z,42.93
2018-04-25T22:45:01.000Z,42.75
2018-04-25T22:49:03.481Z,42.95
2018-04-25T22:53:06.299Z,43.14
2018-04-25T22:57:08.781Z,43.14
2018-04-25T23:01:11.254Z,43.13
2018-04-25T23:05:13.715Z,43.13
2018-04-25T23:09:16.200Z,43.23
2018-04-25T23:13:18.644Z,43.58
2018-04-25T23:17:21.117Z,43.75
2018-04-25T23:21:23.599Z,43.92
2018-04-25T23:25:26.054Z,43.59
2018-04-25T23:29:28.542Z,43.89
2018-04-25T23:33:31.027Z,44.23
2018-04-25T23:37:33.505Z,44.98
2018-04-25T23:41:36.011Z,45.02
2018-04-25T23:45:38.458Z,44.99
2018-04-25T23:49:40.940Z,45.03
2018-04-25T23:53:43.398Z,45.19
2018-04-25T23:57:45.870Z,45.27
